Time;durP1;ratioP1;P1;durP2;ratioP2;P2;SDS_P1;SDS_P2;PMS_P1;PMS_P2;Temp;Humidity;BMP_temperature;BMP_pressure;BME280_temperature;BME280_humidity;BME280_pressure;Samples;Min_cycle;Max_cycle;Signal;HPM_P1;HPM_P2
2021/11/05 00:02:24;;;;;;;10.85;4.63;;;13.00;90.30;;;;;;5051190;28;20021;-71
2021/11/05 00:04:50;;;;;;;10.52;4.40;;;13.00;90.40;;;;;;5051180;28;20104;-71
2021/11/05 00:07:16;;;;;;;9.65;4.78;;;12.90;90.30;;;;;;5052287;28;20041;-71
2021/11/05 00:09:41;;;;;;;13.63;4.65;;;12.80;90.30;;;;;;5052420;28;20021;-73
2021/11/05 00:12:08;;;;;;;11.90;4.55;;;12.80;90.40;;;;;;5052623;28;20052;-73
2021/11/05 00:14:34;;;;;;;14.75;4.65;;;12.80;90.50;;;;;;5052633;28;20028;-73
2021/11/05 00:17:00;;;;;;;9.40;4.35;;;12.90;90.50;;;;;;5052475;28;20029;-72
2021/11/05 00:19:26;;;;;;;13.65;4.50;;;12.80;90.40;;;;;;5051263;28;20074;-73
2021/11/05 00:21:52;;;;;;;8.98;4.03;;;12.90;90.40;;;;;;5052382;28;20056;-73
2021/11/05 00:24:17;;;;;;;7.38;4.00;;;12.90;90.40;;;;;;5052514;28;20060;-73
2021/11/05 00:26:43;;;;;;;11.95;4.18;;;12.80;90.60;;;;;;5050888;28;20033;-72
2021/11/05 00:29:09;;;;;;;12.45;3.92;;;12.80;90.30;;;;;;5052373;28;20021;-71
2021/11/05 00:31:35;;;;;;;10.48;3.83;;;12.80;90.40;;;;;;5052338;28;20059;-72
2021/11/05 00:34:01;;;;;;;13.27;4.10;;;12.80;90.50;;;;;;5050985;28;20013;-74
2021/11/05 00:36:26;;;;;;;11.55;4.15;;;12.80;90.60;;;;;;5052442;28;20029;-73
2021/11/05 00:38:52;;;;;;;10.57;4.80;;;12.90;90.60;;;;;;5052329;28;20025;-72
2021/11/05 00:41:18;;;;;;;8.50;4.00;;;12.90;90.50;;;;;;5052239;28;20029;-71
2021/11/05 00:43:44;;;;;;;9.40;4.00;;;12.90;90.50;;;;;;5052449;28;20017;-73
2021/11/05 00:46:12;;;;;;;9.32;3.50;;;12.90;90.50;;;;;;5054650;28;20035;-72
2021/11/05 00:48:37;;;;;;;11.00;3.50;;;12.90;90.50;;;;;;5056020;28;20017;-71
2021/11/05 00:51:03;;;;;;;8.60;3.40;;;12.90;90.40;;;;;;5055816;28;20027;-72
2021/11/05 00:53:29;;;;;;;9.50;3.90;;;12.90;90.30;;;;;;5055929;28;20088;-72
2021/11/05 00:55:55;;;;;;;7.47;3.20;;;12.90;90.20;;;;;;5055817;28;20032;-72
2021/11/05 00:58:21;;;;;;;8.13;3.50;;;12.90;90.20;;;;;;5055565;28;20032;-73
2021/11/05 01:00:47;;;;;;;9.48;3.53;;;12.80;90.20;;;;;;5055931;28;20025;-72
2021/11/05 01:03:13;;;;;;;7.05;3.40;;;12.80;90.30;;;;;;5054269;28;20025;-71
2021/11/05 01:05:38;;;;;;;6.80;3.20;;;12.90;90.40;;;;;;5055483;28;20025;-72
2021/11/05 01:08:07;;;;;;;9.25;3.42;;;12.90;90.30;;;;;;5055571;28;20035;-71
2021/11/05 01:10:35;;;;;;;8.20;4.07;;;12.90;90.40;;;;;;5055633;28;20426;-72
2021/11/05 01:13:02;;;;;;;7.22;3.63;;;13.00;90.40;;;;;;5056312;28;20013;-71
2021/11/05 01:15:28;;;;;;;6.10;3.15;;;13.00;90.50;;;;;;5055923;28;20331;-72
2021/11/05 01:17:54;;;;;;;8.23;3.45;;;12.90;90.20;;;;;;5055545;28;20029;-72
2021/11/05 01:20:20;;;;;;;7.45;3.28;;;12.90;90.30;;;;;;5055460;28;20032;-71
2021/11/05 01:22:46;;;;;;;7.05;3.00;;;12.90;90.30;;;;;;5084449;22;20044;-67
2021/11/05 01:25:13;;;;;;;8.57;3.50;;;12.90;90.20;;;;;;5095292;28;20028;-67
2021/11/05 01:27:44;;;;;;;8.13;3.50;;;12.90;90.20;;;;;;5095214;28;20043;-67
2021/11/05 01:30:11;;;;;;;7.95;3.60;;;12.90;90.20;;;;;;5093784;28;20078;-68
2021/11/05 01:32:38;;;;;;;10.73;4.00;;;12.90;90.30;;;;;;5095180;28;20055;-68
2021/11/05 01:35:05;;;;;;;10.27;3.58;;;13.00;90.30;;;;;;5095044;28;20104;-68
2021/11/05 01:37:31;;;;;;;8.43;3.88;;;13.00;90.20;;;;;;5094997;28;20086;-67
2021/11/05 01:39:57;;;;;;;8.25;4.35;;;13.00;90.10;;;;;;5094982;28;20028;-68
2021/11/05 01:42:23;;;;;;;8.70;4.07;;;13.00;90.20;;;;;;5093502;28;20024;-68
2021/11/05 01:44:49;;;;;;;9.35;3.97;;;13.10;90.20;;;;;;5094700;28;20508;-68
2021/11/05 01:47:18;;;;;;;13.20;3.72;;;13.10;90.30;;;;;;5094725;28;20036;-69
2021/11/05 01:49:44;;;;;;;9.55;3.70;;;13.10;90.30;;;;;;5093455;28;20024;-68
2021/11/05 01:52:10;;;;;;;7.40;3.28;;;13.10;90.30;;;;;;5094758;28;20027;-68
2021/11/05 01:54:36;;;;;;;9.50;3.90;;;13.10;90.30;;;;;;5093385;28;20047;-70
2021/11/05 01:57:03;;;;;;;11.63;4.68;;;13.10;90.20;;;;;;5094253;28;20035;-69
2021/11/05 01:59:31;;;;;;;10.65;3.88;;;13.10;90.10;;;;;;5094456;28;20016;-68
2021/11/05 02:01:59;;;;;;;9.02;4.15;;;13.00;90.30;;;;;;5094524;28;20056;-71
2021/11/05 02:04:29;;;;;;;9.23;4.45;;;13.00;90.40;;;;;;5094544;28;20498;-70
2021/11/05 02:06:56;;;;;;;9.52;4.38;;;13.00;90.50;;;;;;5094368;28;20383;-69
2021/11/05 02:09:25;;;;;;;13.00;3.85;;;13.00;90.40;;;;;;5094371;28;20016;-68
2021/11/05 02:11:55;;;;;;;12.70;4.70;;;13.00;90.50;;;;;;5094224;28;20028;-69
2021/11/05 02:14:24;;;;;;;8.32;4.43;;;13.00;90.40;;;;;;5094350;28;20027;-69
2021/11/05 02:16:53;;;;;;;9.55;4.35;;;12.90;90.60;;;;;;5094229;28;20496;-68
2021/11/05 02:19:21;;;;;;;8.95;4.72;;;13.00;90.70;;;;;;5094102;28;20051;-70
2021/11/05 02:21:50;;;;;;;10.32;5.03;;;13.00;90.70;;;;;;5093930;28;20028;-70
2021/11/05 02:24:17;;;;;;;9.20;4.45;;;13.00;90.70;;;;;;5092549;28;20051;-69
2021/11/05 02:26:44;;;;;;;12.45;5.13;;;13.00;90.70;;;;;;5093939;28;20032;-68
2021/11/05 02:29:11;;;;;;;13.90;4.88;;;13.00;90.80;;;;;;5094013;28;20042;-69
2021/11/05 02:31:38;;;;;;;9.90;4.80;;;13.00;90.90;;;;;;5093804;28;20107;-69
2021/11/05 02:34:04;;;;;;;10.77;4.63;;;13.00;90.80;;;;;;5093820;28;20020;-69
2021/11/05 02:36:30;;;;;;;9.00;4.45;;;12.90;90.90;;;;;;5093768;28;20051;-70
2021/11/05 02:38:56;;;;;;;12.57;4.85;;;12.90;90.90;;;;;;5093714;28;20030;-69
2021/11/05 02:41:22;;;;;;;9.60;4.75;;;12.90;90.90;;;;;;5093898;28;20105;-69
2021/11/05 02:43:49;;;;;;;11.80;4.70;;;12.80;91.00;;;;;;5093714;28;20469;-69
2021/11/05 02:46:15;;;;;;;10.77;4.75;;;12.80;91.10;;;;;;5093489;28;20024;-71
2021/11/05 02:48:42;;;;;;;11.38;4.75;;;12.80;91.20;;;;;;5093534;28;20024;-69
2021/11/05 02:51:09;;;;;;;8.27;4.47;;;12.80;91.30;;;;;;5093424;28;20024;-70
2021/11/05 02:53:35;;;;;;;12.30;4.70;;;12.70;91.30;;;;;;5093337;28;20043;-68
2021/11/05 02:56:01;;;;;;;9.73;4.28;;;12.70;91.30;;;;;;5093478;28;20035;-69
2021/11/05 02:58:27;;;;;;;7.38;4.50;;;12.70;91.30;;;;;;5093553;28;20012;-69
2021/11/05 03:00:54;;;;;;;11.15;4.55;;;12.70;91.40;;;;;;5093393;28;20039;-68
2021/11/05 03:03:20;;;;;;;7.38;4.43;;;12.60;91.30;;;;;;5093446;28;20236;-66
2021/11/05 03:05:46;;;;;;;8.15;3.97;;;12.70;91.30;;;;;;5093379;28;20483;-68
2021/11/05 03:08:11;;;;;;;8.02;4.38;;;12.70;91.20;;;;;;5092590;28;20035;-68
2021/11/05 03:10:37;;;;;;;8.68;4.05;;;12.60;91.20;;;;;;5093089;28;20024;-69
2021/11/05 03:13:03;;;;;;;10.80;5.28;;;12.60;91.10;;;;;;5093195;28;20028;-69
2021/11/05 03:15:29;;;;;;;10.63;3.90;;;12.60;91.10;;;;;;5093177;28;20077;-70
2021/11/05 03:17:57;;;;;;;7.68;3.67;;;12.60;91.00;;;;;;5093306;28;20034;-69
2021/11/05 03:20:23;;;;;;;8.18;3.70;;;12.60;91.00;;;;;;5093182;28;20042;-68
2021/11/05 03:22:49;;;;;;;10.93;3.40;;;12.60;90.90;;;;;;5092651;28;20048;-71
2021/11/05 03:25:15;;;;;;;7.88;3.50;;;12.60;90.80;;;;;;5092902;28;20024;-69
2021/11/05 03:27:42;;;;;;;6.93;3.65;;;12.70;90.80;;;;;;5092906;28;20111;-69
2021/11/05 03:30:11;;;;;;;7.82;3.78;;;12.70;90.60;;;;;;5092881;28;20051;-69
2021/11/05 03:32:38;;;;;;;12.73;4.90;;;12.70;90.70;;;;;;5093029;28;20576;-70
2021/11/05 03:35:06;;;;;;;9.00;3.83;;;12.70;90.60;;;;;;5092829;28;20028;-68
2021/11/05 03:37:33;;;;;;;8.63;4.00;;;12.70;90.60;;;;;;5092812;28;20020;-69
2021/11/05 03:40:00;;;;;;;10.05;5.00;;;12.70;90.60;;;;;;5092751;28;20032;-69
2021/11/05 03:42:26;;;;;;;10.10;4.65;;;12.60;90.60;;;;;;5093162;28;20021;-68
2021/11/05 03:44:52;;;;;;;12.93;4.70;;;12.60;90.70;;;;;;5092970;28;20465;-69
2021/11/05 03:47:18;;;;;;;8.85;4.28;;;12.60;90.70;;;;;;5092736;28;20031;-69
2021/11/05 03:49:44;;;;;;;12.40;4.50;;;12.60;90.70;;;;;;5092668;28;20398;-67
2021/11/05 03:52:10;;;;;;;7.40;3.92;;;12.60;90.80;;;;;;5092805;28;20027;-69
2021/11/05 03:54:36;;;;;;;12.32;5.80;;;12.50;90.70;;;;;;5091422;28;20027;-69
2021/11/05 03:57:02;;;;;;;10.40;4.70;;;12.50;90.80;;;;;;5092608;28;20024;-69
2021/11/05 03:59:28;;;;;;;7.63;4.15;;;12.50;90.80;;;;;;5092496;28;20020;-69
2021/11/05 04:01:54;;;;;;;8.48;4.15;;;12.40;90.90;;;;;;5092662;28;20384;-69
2021/11/05 04:04:20;;;;;;;10.30;4.82;;;12.50;91.00;;;;;;5092529;28;20028;-68
2021/11/05 04:06:46;;;;;;;10.50;4.80;;;12.60;91.10;;;;;;5092424;28;20042;-68
2021/11/05 04:09:12;;;;;;;13.48;4.80;;;12.60;91.00;;;;;;5091237;28;20434;-69
2021/11/05 04:11:38;;;;;;;10.60;4.45;;;12.60;91.00;;;;;;5092521;28;20024;-67
2021/11/05 04:14:04;;;;;;;9.10;4.35;;;12.60;91.00;;;;;;5091254;28;20465;-69
2021/11/05 04:16:30;;;;;;;9.07;4.25;;;12.60;90.90;;;;;;5092577;28;20101;-67
2021/11/05 04:18:56;;;;;;;10.63;4.57;;;12.60;90.90;;;;;;5092959;28;20091;-67
2021/11/05 04:21:22;;;;;;;9.63;3.85;;;12.60;90.80;;;;;;5096273;28;20032;-70
2021/11/05 04:23:48;;;;;;;8.65;4.40;;;12.60;90.80;;;;;;5094654;28;20500;-68
2021/11/05 04:26:15;;;;;;;9.13;4.20;;;12.60;90.80;;;;;;5094946;28;20468;-69
2021/11/05 04:28:41;;;;;;;12.77;4.18;;;12.50;90.90;;;;;;5096712;28;20012;-68
2021/11/05 04:31:07;;;;;;;13.88;4.75;;;12.50;90.90;;;;;;5096520;28;20379;-68
2021/11/05 04:33:33;;;;;;;9.35;3.75;;;12.50;90.90;;;;;;5094900;28;20158;-68
2021/11/05 04:36:01;;;;;;;8.45;3.53;;;12.40;91.00;;;;;;5096045;28;20048;-68
2021/11/05 04:38:27;;;;;;;12.23;4.00;;;12.40;91.00;;;;;;5096260;28;20035;-67
2021/11/05 04:40:53;;;;;;;9.00;4.07;;;12.30;91.10;;;;;;5095927;28;20028;-67
2021/11/05 04:43:19;;;;;;;7.35;3.85;;;12.30;91.10;;;;;;5095913;28;20380;-68
2021/11/05 04:45:45;;;;;;;10.57;3.38;;;12.30;91.20;;;;;;5095938;28;20020;-68
2021/11/05 04:48:11;;;;;;;9.32;3.33;;;12.30;91.20;;;;;;5095895;28;20028;-68
2021/11/05 04:50:37;;;;;;;11.50;3.08;;;12.40;91.20;;;;;;5097920;28;20430;-68
2021/11/05 04:53:04;;;;;;;8.57;3.83;;;12.30;91.10;;;;;;5098921;28;20073;-68
2021/11/05 04:55:31;;;;;;;10.30;3.83;;;12.30;91.20;;;;;;5096933;28;20032;-67
2021/11/05 04:57:58;;;;;;;7.60;2.83;;;12.30;91.20;;;;;;5094353;28;20028;-69
2021/11/05 05:00:26;;;;;;;8.43;3.10;;;12.40;91.20;;;;;;5095571;28;20030;-68
2021/11/05 05:02:53;;;;;;;9.80;3.47;;;12.40;91.20;;;;;;5095416;28;20028;-68
2021/11/05 05:05:19;;;;;;;11.00;2.85;;;12.40;91.20;;;;;;5095521;28;20026;-68
2021/11/05 05:07:47;;;;;;;6.68;3.22;;;12.40;91.30;;;;;;5094261;28;20039;-68
2021/11/05 05:10:14;;;;;;;6.88;3.22;;;12.40;91.10;;;;;;5095276;28;20020;-68
2021/11/05 05:12:40;;;;;;;7.97;2.63;;;12.50;91.10;;;;;;5095717;28;20115;-68
2021/11/05 05:15:09;;;;;;;7.13;3.08;;;12.50;91.00;;;;;;5095827;28;20031;-67
2021/11/05 05:17:35;;;;;;;9.20;2.70;;;12.50;91.10;;;;;;5095276;28;20012;-69
2021/11/05 05:20:03;;;;;;;7.00;2.80;;;12.40;91.10;;;;;;5095312;28;20034;-69
2021/11/05 05:22:29;;;;;;;8.90;3.78;;;12.40;91.20;;;;;;5094906;28;20040;-71
2021/11/05 05:24:54;;;;;;;6.88;2.60;;;12.50;91.20;;;;;;5095322;28;20055;-69
2021/11/05 05:27:20;;;;;;;5.90;2.58;;;12.50;91.30;;;;;;5095473;28;20036;-70
2021/11/05 05:29:47;;;;;;;5.93;3.08;;;12.50;91.20;;;;;;5095419;28;20101;-70
2021/11/05 05:32:14;;;;;;;5.93;2.47;;;12.60;91.20;;;;;;5094207;28;20107;-70
2021/11/05 05:34:40;;;;;;;8.55;3.47;;;12.60;91.20;;;;;;5094972;28;20070;-70
2021/11/05 05:37:06;;;;;;;13.50;3.25;;;12.60;91.20;;;;;;5094892;28;20035;-69
2021/11/05 05:39:32;;;;;;;7.25;2.40;;;12.60;91.10;;;;;;5095074;28;20024;-69
2021/11/05 05:41:58;;;;;;;10.07;2.90;;;12.50;91.10;;;;;;5094817;28;20027;-69
2021/11/05 05:44:24;;;;;;;7.40;2.70;;;12.50;91.20;;;;;;5094658;28;20103;-70
2021/11/05 05:46:50;;;;;;;6.82;3.30;;;12.50;91.30;;;;;;5094563;28;20044;-68
2021/11/05 05:49:15;;;;;;;7.07;2.67;;;12.50;91.20;;;;;;5093258;28;20128;-69
2021/11/05 05:51:41;;;;;;;6.53;2.67;;;12.40;91.20;;;;;;5094445;28;20028;-70
2021/11/05 05:54:07;;;;;;;9.70;2.88;;;12.40;91.30;;;;;;5094481;28;20024;-69
2021/11/05 05:56:33;;;;;;;8.20;2.75;;;12.40;91.40;;;;;;5094374;28;20016;-69
2021/11/05 05:58:59;;;;;;;8.20;3.40;;;12.50;91.30;;;;;;5094189;28;20036;-70
2021/11/05 06:01:25;;;;;;;6.25;2.83;;;12.50;91.40;;;;;;5094336;28;20217;-69
2021/11/05 06:03:50;;;;;;;6.65;2.78;;;12.40;91.30;;;;;;5094369;28;20464;-70
2021/11/05 06:06:16;;;;;;;6.03;2.80;;;12.50;91.40;;;;;;5094322;28;20102;-69
2021/11/05 06:08:42;;;;;;;8.80;2.78;;;12.50;91.40;;;;;;5094383;28;20046;-69
2021/11/05 06:11:09;;;;;;;10.82;3.17;;;12.50;91.40;;;;;;5094134;28;20021;-70
2021/11/05 06:13:35;;;;;;;10.32;3.25;;;12.50;91.40;;;;;;5094030;28;20111;-69
2021/11/05 06:16:01;;;;;;;7.38;2.80;;;12.50;91.40;;;;;;5093833;28;20020;-67
2021/11/05 06:18:28;;;;;;;8.30;3.03;;;12.50;91.40;;;;;;5094102;28;20035;-69
2021/11/05 06:20:54;;;;;;;9.95;3.38;;;12.50;91.30;;;;;;5093692;28;20024;-68
2021/11/05 06:23:20;;;;;;;7.05;2.72;;;12.60;91.40;;;;;;5103736;28;20048;-70
2021/11/05 06:25:46;;;;;;;7.13;2.85;;;12.60;91.30;;;;;;5093702;28;20043;-70
2021/11/05 06:28:12;;;;;;;4.95;2.80;;;12.70;91.50;;;;;;5093768;28;20089;-68
2021/11/05 06:30:37;;;;;;;7.90;2.88;;;12.80;91.10;;;;;;5093588;28;20035;-69
2021/11/05 06:33:03;;;;;;;7.53;3.20;;;12.70;91.10;;;;;;5093627;28;20025;-67
2021/11/05 06:35:29;;;;;;;8.45;3.03;;;12.70;91.10;;;;;;5093831;28;20036;-70
2021/11/05 06:37:56;;;;;;;8.57;3.20;;;12.70;91.10;;;;;;5093652;28;20465;-68
2021/11/05 06:40:22;;;;;;;4.32;2.60;;;12.70;91.00;;;;;;5093649;28;20103;-71
2021/11/05 06:42:48;;;;;;;6.20;2.90;;;12.80;91.10;;;;;;5091447;28;20024;-69
2021/11/05 06:45:15;;;;;;;9.27;3.08;;;12.80;91.10;;;;;;5093436;28;20020;-69
2021/11/05 06:47:41;;;;;;;11.00;3.20;;;12.70;90.90;;;;;;5093248;28;20040;-68
2021/11/05 06:50:08;;;;;;;12.07;4.10;;;12.70;91.00;;;;;;5094436;28;20017;-72
2021/11/05 06:52:34;;;;;;;12.40;3.38;;;12.70;91.30;;;;;;5110670;28;20118;-70
2021/11/05 06:55:01;;;;;;;7.28;3.30;;;12.70;90.90;;;;;;5113466;28;20379;-69
2021/11/05 06:57:27;;;;;;;8.82;3.42;;;12.70;91.00;;;;;;5112870;28;20533;-68
2021/11/05 06:59:56;;;;;;;11.18;3.85;;;12.70;91.10;;;;;;5113468;28;20023;-67
2021/11/05 07:02:22;;;;;;;10.00;3.47;;;12.70;91.10;;;;;;5113562;28;20399;-70
2021/11/05 07:04:48;;;;;;;8.48;3.55;;;12.70;91.20;;;;;;5113289;28;20581;-70
2021/11/05 07:07:13;;;;;;;12.85;3.63;;;12.70;91.20;;;;;;5112955;28;20045;-70
2021/11/05 07:09:39;;;;;;;6.38;3.08;;;12.70;91.10;;;;;;5072709;28;20021;-69
2021/11/05 07:12:06;;;;;;;11.73;3.10;;;12.60;91.00;;;;;;5072616;28;20142;-68
2021/11/05 07:14:33;;;;;;;12.38;3.45;;;12.70;91.00;;;;;;5071500;28;20478;-68
2021/11/05 07:16:58;;;;;;;11.73;3.63;;;12.70;90.90;;;;;;5072851;28;20031;-69
2021/11/05 07:19:25;;;;;;;7.38;3.20;;;12.80;90.80;;;;;;5072942;28;20386;-69
2021/11/05 07:21:58;;;;;;;8.90;4.75;;;12.90;90.70;;;;;;5072861;28;20025;-69
2021/11/05 07:24:27;;;;;;;6.57;3.42;;;13.00;90.60;;;;;;5073302;28;20052;-71
2021/11/05 07:26:53;;;;;;;8.65;3.45;;;13.10;90.50;;;;;;5073530;28;20036;-71
2021/11/05 07:29:23;;;;;;;8.18;3.55;;;13.10;90.50;;;;;;5073389;28;20032;-70
2021/11/05 07:31:49;;;;;;;8.63;3.35;;;13.10;90.40;;;;;;5072638;28;20033;-72
2021/11/05 07:34:15;;;;;;;12.43;3.75;;;13.20;90.30;;;;;;5072694;28;20055;-70
2021/11/05 07:36:41;;;;;;;8.30;4.03;;;13.30;90.30;;;;;;5072637;28;20036;-72
2021/11/05 07:39:07;;;;;;;8.32;3.50;;;13.30;90.20;;;;;;5072492;28;20496;-70
2021/11/05 07:41:34;;;;;;;13.45;3.42;;;13.40;90.10;;;;;;5072439;28;20054;-70
2021/11/05 07:44:00;;;;;;;10.50;3.53;;;13.50;90.00;;;;;;5100457;28;20024;-69
2021/11/05 07:46:27;;;;;;;12.00;3.60;;;13.60;90.00;;;;;;5095699;28;20123;-69
2021/11/05 07:48:53;;;;;;;11.15;3.53;;;13.80;89.70;;;;;;5092791;28;20020;-67
2021/11/05 07:51:19;;;;;;;8.57;3.72;;;13.80;89.30;;;;;;5092623;28;20039;-67
2021/11/05 07:53:44;;;;;;;15.38;3.60;;;13.90;89.20;;;;;;5092650;28;20020;-70
2021/11/05 07:56:10;;;;;;;8.13;3.80;;;13.90;88.80;;;;;;5096277;28;20067;-70
2021/11/05 07:58:36;;;;;;;6.82;3.20;;;13.90;88.70;;;;;;5096540;28;20085;-70
2021/11/05 08:01:02;;;;;;;11.25;3.60;;;13.90;88.20;;;;;;5096704;28;20032;-69
2021/11/05 08:03:28;;;;;;;10.18;3.60;;;13.90;87.90;;;;;;5096363;28;20039;-69
2021/11/05 08:05:54;;;;;;;11.18;3.70;;;13.90;87.90;;;;;;5096342;28;20028;-68
2021/11/05 08:08:19;;;;;;;7.97;3.45;;;13.90;87.90;;;;;;5095197;28;20086;-67
2021/11/05 08:10:46;;;;;;;11.07;3.22;;;13.90;87.70;;;;;;5096874;28;20101;-68
2021/11/05 08:13:13;;;;;;;11.85;3.55;;;14.00;88.00;;;;;;5096622;28;20027;-69
2021/11/05 08:15:39;;;;;;;10.20;3.15;;;14.00;87.60;;;;;;5096301;28;20090;-68
2021/11/05 08:18:04;;;;;;;11.55;2.95;;;13.90;87.40;;;;;;5096523;28;20016;-70
2021/11/05 08:20:30;;;;;;;11.98;3.25;;;13.80;87.30;;;;;;5096330;28;20454;-71
2021/11/05 08:22:56;;;;;;;14.85;3.67;;;13.80;87.10;;;;;;5096008;28;20076;-68
2021/11/05 08:25:24;;;;;;;6.28;3.30;;;13.90;87.20;;;;;;5096330;28;20032;-71
2021/11/05 08:27:50;;;;;;;7.40;2.90;;;14.00;87.10;;;;;;5096083;28;20046;-70
2021/11/05 08:30:22;;;;;;;10.43;3.40;;;14.10;86.80;;;;;;5096057;28;20103;-68
2021/11/05 08:32:49;;;;;;;11.65;3.55;;;14.20;86.30;;;;;;5096182;28;20031;-70
2021/11/05 08:35:19;;;;;;;10.30;4.03;;;14.20;86.40;;;;;;5095735;28;20081;-71
2021/11/05 08:37:45;;;;;;;13.10;4.43;;;14.40;86.20;;;;;;5096129;28;20099;-69
2021/11/05 08:40:11;;;;;;;16.38;3.90;;;14.50;85.60;;;;;;5095709;28;20441;-71
2021/11/05 08:42:38;;;;;;;9.05;3.60;;;14.50;84.70;;;;;;5095921;28;20023;-70
2021/11/05 08:45:08;;;;;;;9.77;3.35;;;14.60;84.50;;;;;;5095688;28;20032;-70
2021/11/05 08:47:37;;;;;;;9.20;3.85;;;14.60;84.30;;;;;;5095647;28;20032;-70
2021/11/05 08:50:16;;;;;;;7.95;3.60;;;14.70;84.00;;;;;;5095579;28;20056;-70
2021/11/05 08:52:42;;;;;;;10.88;3.55;;;14.80;84.30;;;;;;5095714;28;20018;-70
2021/11/05 08:55:10;;;;;;;7.72;3.22;;;14.90;83.70;;;;;;5095715;28;20034;-69
2021/11/05 08:57:37;;;;;;;9.32;3.38;;;15.00;84.00;;;;;;5095898;28;20016;-69
2021/11/05 09:00:20;;;;;;;8.02;3.20;;;15.00;82.70;;;;;;5095391;28;20089;-69
2021/11/05 09:02:46;;;;;;;10.60;3.63;;;15.10;82.80;;;;;;5095445;28;20101;-71
2021/11/05 09:05:12;;;;;;;8.65;3.22;;;15.10;82.10;;;;;;5094663;28;20024;-70
2021/11/05 09:07:38;;;;;;;7.75;2.90;;;15.10;81.40;;;;;;5094744;28;20046;-70
2021/11/05 09:10:06;;;;;;;8.65;3.15;;;15.10;81.40;;;;;;5095394;28;20052;-70
2021/11/05 09:12:32;;;;;;;10.52;3.22;;;15.20;81.60;;;;;;5095315;28;20028;-70
2021/11/05 09:14:58;;;;;;;7.88;3.30;;;15.20;81.10;;;;;;5095274;28;20470;-70
2021/11/05 09:17:24;;;;;;;10.35;3.95;;;15.30;81.00;;;;;;5095204;28;20020;-68
2021/11/05 09:19:50;;;;;;;15.75;3.60;;;15.40;81.30;;;;;;5095053;28;20024;-69
2021/11/05 09:22:16;;;;;;;11.40;3.45;;;15.50;80.80;;;;;;5094801;28;20024;-71
2021/11/05 09:24:42;;;;;;;5.72;3.40;;;15.50;80.50;;;;;;5095099;28;20036;-71
2021/11/05 09:27:08;;;;;;;9.70;3.30;;;15.50;80.40;;;;;;5094977;28;20484;-70
2021/11/05 09:29:34;;;;;;;9.90;3.42;;;15.40;80.80;;;;;;5094834;28;20362;-72
2021/11/05 09:31:59;;;;;;;15.43;3.78;;;15.40;80.80;;;;;;5095080;28;20146;-69
2021/11/05 09:34:31;;;;;;;8.93;3.70;;;15.50;80.90;;;;;;5095020;28;20035;-69
2021/11/05 09:36:57;;;;;;;8.18;3.35;;;15.40;80.60;;;;;;5094972;28;20020;-70
2021/11/05 09:39:22;;;;;;;9.75;3.42;;;15.40;80.40;;;;;;5095041;28;20032;-70
2021/11/05 09:41:48;;;;;;;7.43;3.17;;;15.50;80.30;;;;;;5094642;28;20034;-67
2021/11/05 09:44:14;;;;;;;14.20;3.40;;;15.60;80.60;;;;;;5127456;27;20388;-69
2021/11/05 09:46:40;;;;;;;9.68;3.63;;;15.70;80.30;;;;;;5094564;28;20036;-70
2021/11/05 09:49:06;;;;;;;10.57;3.55;;;15.70;79.80;;;;;;5094674;28;20078;-69
2021/11/05 09:51:32;;;;;;;11.70;3.08;;;15.80;79.60;;;;;;5094337;28;20111;-69
2021/11/05 09:54:02;;;;;;;12.20;3.83;;;15.80;79.30;;;;;;5094487;28;20073;-69
2021/11/05 09:56:29;;;;;;;11.52;3.08;;;15.90;79.10;;;;;;5094597;28;20448;-69
2021/11/05 09:58:55;;;;;;;7.35;2.80;;;16.00;78.70;;;;;;5093011;28;20115;-69
2021/11/05 10:01:20;;;;;;;9.00;3.47;;;16.00;78.30;;;;;;5094317;28;20106;-71
2021/11/05 10:03:46;;;;;;;13.05;2.90;;;16.10;78.20;;;;;;5094503;28;20377;-70
2021/11/05 10:06:13;;;;;;;12.25;3.45;;;16.20;78.10;;;;;;5094195;28;20127;-69
2021/11/05 10:08:39;;;;;;;14.57;3.60;;;16.30;77.30;;;;;;5092837;28;20038;-69
2021/11/05 10:11:28;;;;;;;7.88;2.92;;;16.30;76.70;;;;;;5093859;28;20044;-69
2021/11/05 10:13:56;;;;;;;7.85;2.60;;;16.30;76.50;;;;;;5094276;28;20377;-69
2021/11/05 10:16:26;;;;;;;9.77;2.75;;;16.20;76.60;;;;;;5093145;28;20089;-70
2021/11/05 10:18:56;;;;;;;6.30;2.50;;;16.10;76.40;;;;;;5094544;28;20016;-69
2021/11/05 10:21:23;;;;;;;6.68;2.45;;;16.10;76.60;;;;;;5094949;28;20023;-69
2021/11/05 10:23:48;;;;;;;10.57;2.95;;;16.10;76.30;;;;;;5093985;28;20060;-69
2021/11/05 10:26:28;;;;;;;8.88;2.58;;;16.00;76.40;;;;;;5093564;28;20035;-69
2021/11/05 10:28:55;;;;;;;8.15;2.75;;;16.10;76.30;;;;;;5093646;28;20119;-68
2021/11/05 10:31:25;;;;;;;12.88;3.20;;;16.10;76.50;;;;;;5093701;28;20024;-70
2021/11/05 10:33:51;;;;;;;11.85;3.08;;;16.00;76.50;;;;;;5093546;28;20063;-69
2021/11/05 10:36:22;;;;;;;10.52;3.58;;;16.00;76.30;;;;;;5093062;28;20028;-68
2021/11/05 10:38:54;;;;;;;9.15;2.75;;;16.00;76.10;;;;;;5093461;28;20020;-69
2021/11/05 10:41:23;;;;;;;7.05;2.30;;;16.10;76.10;;;;;;5093219;28;20039;-69
2021/11/05 10:43:52;;;;;;;6.75;2.30;;;16.10;75.50;;;;;;5092059;28;20094;-68
2021/11/05 10:46:41;;;;;;;7.60;2.42;;;16.10;75.00;;;;;;5093384;28;20035;-68
2021/11/05 10:49:25;;;;;;;6.20;2.60;;;16.20;75.20;;;;;;5093465;28;20027;-69
2021/11/05 10:51:52;;;;;;;9.05;2.97;;;16.20;75.30;;;;;;5093430;28;20036;-69
2021/11/05 10:54:17;;;;;;;6.45;2.65;;;16.40;74.80;;;;;;5093218;28;20068;-68
2021/11/05 10:56:45;;;;;;;7.03;2.80;;;16.40;74.90;;;;;;5093188;28;20020;-68
2021/11/05 10:59:11;;;;;;;8.82;2.85;;;16.40;74.80;;;;;;5093039;28;20024;-69
2021/11/05 11:01:42;;;;;;;9.30;3.38;;;16.50;74.40;;;;;;5092940;28;20034;-70
2021/11/05 11:04:11;;;;;;;9.00;3.47;;;16.60;74.30;;;;;;5093166;28;20077;-69
2021/11/05 11:06:39;;;;;;;6.93;2.95;;;16.70;74.30;;;;;;5093054;28;20020;-69
2021/11/05 11:09:19;;;;;;;9.73;2.67;;;16.70;73.60;;;;;;5092987;28;20385;-68
2021/11/05 11:11:53;;;;;;;8.00;3.03;;;16.80;73.10;;;;;;5092787;28;20028;-68
2021/11/05 11:14:45;;;;;;;9.13;2.60;;;16.90;72.80;;;;;;5092796;28;20020;-70
2021/11/05 11:17:14;;;;;;;8.38;2.50;;;17.00;72.40;;;;;;5086984;28;20375;-70
2021/11/05 11:19:46;;;;;;;7.22;2.38;;;17.00;72.40;;;;;;5091512;28;20066;-68
2021/11/05 11:22:12;;;;;;;14.30;2.45;;;16.90;72.40;;;;;;5092234;28;20081;-69
2021/11/05 11:24:40;;;;;;;8.15;2.60;;;16.90;72.20;;;;;;5094082;28;20048;-68
2021/11/05 11:27:09;;;;;;;11.32;3.45;;;17.00;72.00;;;;;;5093069;28;20040;-68
2021/11/05 11:29:35;;;;;;;12.70;4.30;;;17.00;72.00;;;;;;5092634;28;20092;-70
2021/11/05 11:32:03;;;;;;;20.55;4.07;;;17.10;72.30;;;;;;5093085;28;20035;-70
2021/11/05 11:34:29;;;;;;;9.95;3.67;;;17.20;72.00;;;;;;5093036;28;20028;-70
2021/11/05 11:36:58;;;;;;;6.18;2.60;;;17.30;71.90;;;;;;5092727;28;20035;-69
2021/11/05 11:39:27;;;;;;;14.02;3.67;;;17.40;71.50;;;;;;5092407;28;20059;-71
2021/11/05 11:41:54;;;;;;;11.18;3.67;;;17.40;70.90;;;;;;5092595;28;20021;-72
2021/11/05 11:44:22;;;;;;;6.45;2.72;;;17.40;70.70;;;;;;5092517;28;20032;-70
2021/11/05 11:47:08;;;;;;;8.75;3.17;;;17.40;70.30;;;;;;5092311;28;20073;-70
2021/11/05 11:49:37;;;;;;;9.00;2.60;;;17.50;69.90;;;;;;5092495;28;20020;-70
2021/11/05 11:52:07;;;;;;;9.18;3.13;;;17.70;70.50;;;;;;5092439;28;20027;-69
2021/11/05 11:54:36;;;;;;;8.43;2.58;;;17.80;70.10;;;;;;5092497;28;20089;-70
2021/11/05 11:57:16;;;;;;;5.43;2.60;;;17.90;68.90;;;;;;5090770;28;20035;-70
2021/11/05 11:59:44;;;;;;;6.97;2.53;;;18.00;68.90;;;;;;5092071;28;20020;-70
2021/11/05 12:02:36;;;;;;;6.88;2.33;;;18.00;68.00;;;;;;5092179;28;20103;-69
2021/11/05 12:05:19;;;;;;;8.40;2.65;;;18.00;68.80;;;;;;5092173;28;20020;-68
2021/11/05 12:08:11;;;;;;;8.80;3.10;;;18.00;69.00;;;;;;5091816;28;20044;-68
2021/11/05 12:10:37;;;;;;;12.95;4.47;;;17.90;69.40;;;;;;5091997;28;20017;-69
2021/11/05 12:13:35;;;;;;;7.80;3.35;;;17.80;68.90;;;;;;5092262;28;20024;-70
2021/11/05 12:16:18;;;;;;;23.58;3.45;;;17.70;70.00;;;;;;5091850;28;20047;-70
2021/11/05 12:19:06;;;;;;;7.38;2.40;;;17.70;70.00;;;;;;5092266;28;20063;-67
2021/11/05 12:21:41;;;;;;;7.85;2.50;;;17.70;69.80;;;;;;5092075;28;20504;-67
2021/11/05 12:24:19;;;;;;;11.60;3.28;;;17.70;69.80;;;;;;5091955;28;20048;-66
2021/11/05 12:26:49;;;;;;;12.95;2.70;;;17.80;69.90;;;;;;5090279;28;20557;-70
2021/11/05 12:29:34;;;;;;;8.85;2.85;;;17.80;69.00;;;;;;5092185;28;20056;-70
2021/11/05 12:32:14;;;;;;;6.95;2.80;;;17.80;69.00;;;;;;5092166;28;20016;-68
2021/11/05 12:34:46;;;;;;;9.48;2.75;;;17.80;69.00;;;;;;5092017;28;20511;-69
2021/11/05 12:37:29;;;;;;;10.90;3.00;;;17.80;68.90;;;;;;5090834;28;20473;-69
2021/11/05 12:40:15;;;;;;;8.33;3.13;;;17.80;69.00;;;;;;5092612;28;20043;-68
2021/11/05 12:42:42;;;;;;;7.65;2.97;;;17.80;68.80;;;;;;5095663;28;20270;-69
2021/11/05 12:45:08;;;;;;;10.40;2.83;;;17.70;69.50;;;;;;5095862;28;20035;-70
2021/11/05 12:47:53;;;;;;;10.55;3.05;;;17.70;69.80;;;;;;5095186;28;20032;-72